createdAt,value
2023-10-30T00:01:10.811Z,11.27
2023-10-30T00:03:59.928Z,11.26
2023-10-30T00:06:47.882Z,11.22
2023-10-30T00:09:35.640Z,11.26
2023-10-30T00:12:23.866Z,11.27
2023-10-30T00:15:11.962Z,11.25
2023-10-30T00:17:59.504Z,11.24
2023-10-30T00:20:48.600Z,11.26
2023-10-30T00:23:37.545Z,11.27
2023-10-30T00:26:25.217Z,11.29
2023-10-30T00:29:13.917Z,11.30
2023-10-30T00:32:01.827Z,11.31
2023-10-30T00:34:49.386Z,11.32
2023-10-30T00:37:38.682Z,11.32
2023-10-30T00:40:27.418Z,11.31
2023-10-30T00:43:15.033Z,11.33
2023-10-30T00:46:02.753Z,11.31
2023-10-30T00:48:50.803Z,11.33
2023-10-30T00:51:38.943Z,11.34
2023-10-30T00:54:28.089Z,11.36
2023-10-30T00:57:16.127Z,11.35
2023-10-30T01:00:05.508Z,11.31
2023-10-30T01:02:53.326Z,11.32
2023-10-30T01:05:41.301Z,11.28
2023-10-30T01:08:29.657Z,11.31
2023-10-30T01:11:19.023Z,11.33
2023-10-30T01:14:06.631Z,11.29
2023-10-30T01:16:54.696Z,11.25
2023-10-30T01:19:42.121Z,11.24
2023-10-30T01:22:33.427Z,11.25
2023-10-30T01:25:21.505Z,11.22
2023-10-30T01:28:11.020Z,11.19
2023-10-30T01:30:58.514Z,11.20
2023-10-30T01:33:46.137Z,11.20
2023-10-30T01:36:33.981Z,11.18
2023-10-30T01:39:21.730Z,11.19
2023-10-30T01:42:09.412Z,11.23
2023-10-30T01:44:59.974Z,11.25
2023-10-30T01:47:47.694Z,11.18
2023-10-30T01:50:36.686Z,11.16
2023-10-30T01:53:25.929Z,11.15
2023-10-30T01:56:13.902Z,11.13
2023-10-30T01:59:02.357Z,11.10
2023-10-30T02:01:52.084Z,11.12
2023-10-30T02:04:42.319Z,11.12
2023-10-30T02:07:31.817Z,11.12
2023-10-30T02:10:19.825Z,11.14
2023-10-30T02:13:10.460Z,11.13
2023-10-30T02:15:57.975Z,11.12
2023-10-30T02:18:46.855Z,11.08
2023-10-30T02:21:34.780Z,11.04
2023-10-30T02:24:23.651Z,11.02
2023-10-30T02:27:12.894Z,11.05
2023-10-30T02:30:00.755Z,11.10
2023-10-30T02:32:48.865Z,11.11
2023-10-30T02:35:38.228Z,11.07
2023-10-30T02:38:25.748Z,11.04
2023-10-30T02:41:15.897Z,11.05
2023-10-30T02:44:05.808Z,11.04
2023-10-30T02:46:53.652Z,10.98
2023-10-30T02:49:41.351Z,10.97
2023-10-30T02:52:30.546Z,10.94
2023-10-30T02:55:18.190Z,10.92
2023-10-30T02:58:05.781Z,10.94
2023-10-30T03:00:57.478Z,10.89
2023-10-30T03:03:45.098Z,10.83
2023-10-30T03:06:33.227Z,10.81
2023-10-30T03:09:21.516Z,10.78
2023-10-30T03:12:09.622Z,10.78
2023-10-30T03:14:57.660Z,10.74
2023-10-30T03:17:47.024Z,10.75
2023-10-30T03:20:34.605Z,10.78
2023-10-30T03:23:22.460Z,10.73
2023-10-30T03:26:10.070Z,10.66
2023-10-30T03:28:57.913Z,10.67
2023-10-30T03:31:46.480Z,10.74
2023-10-30T03:34:37.557Z,10.79
2023-10-30T03:37:25.369Z,10.75
2023-10-30T03:40:14.899Z,10.68
2023-10-30T03:43:02.573Z,10.65
2023-10-30T03:45:50.317Z,10.62
2023-10-30T03:48:38.137Z,10.56
2023-10-30T03:51:27.650Z,10.50
2023-10-30T03:54:15.519Z,10.46
2023-10-30T03:57:03.300Z,10.41
2023-10-30T03:59:50.756Z,10.35
2023-10-30T04:02:38.690Z,10.30
2023-10-30T04:05:26.417Z,10.26
2023-10-30T04:08:15.399Z,10.22
2023-10-30T04:11:11.511Z,10.18
2023-10-30T04:13:59.302Z,10.16
2023-10-30T04:16:46.964Z,10.14
2023-10-30T04:19:34.925Z,10.10
2023-10-30T04:22:23.235Z,10.06
2023-10-30T04:25:13.342Z,10.00
2023-10-30T04:28:01.293Z,9.96
2023-10-30T04:30:49.296Z,9.90
2023-10-30T04:33:37.498Z,9.85
2023-10-30T04:36:25.196Z,9.78
2023-10-30T04:39:14.682Z,9.73
2023-10-30T04:42:03.953Z,9.68
2023-10-30T04:44:51.571Z,9.63
2023-10-30T04:47:39.318Z,9.57
2023-10-30T04:50:27.369Z,9.51
2023-10-30T04:53:15.163Z,9.45
2023-10-30T04:56:05.172Z,9.38
2023-10-30T04:58:56.422Z,9.33
2023-10-30T05:01:44.094Z,9.29
2023-10-30T05:04:34.322Z,9.23
2023-10-30T05:07:22.609Z,9.20
2023-10-30T05:10:10.985Z,9.17
2023-10-30T05:12:59.016Z,9.14
2023-10-30T05:15:48.129Z,9.09
2023-10-30T05:18:35.916Z,9.04
2023-10-30T05:21:26.247Z,9.01
2023-10-30T05:24:13.823Z,8.96
2023-10-30T05:27:01.557Z,8.93
2023-10-30T05:29:49.315Z,8.89
2023-10-30T05:32:38.766Z,8.87
2023-10-30T05:35:26.812Z,8.84
2023-10-30T05:38:14.321Z,8.79
2023-10-30T05:41:02.014Z,8.76
2023-10-30T05:43:51.396Z,8.72
2023-10-30T05:46:39.287Z,8.66
2023-10-30T05:49:29.136Z,8.61
2023-10-30T05:52:16.955Z,8.59
2023-10-30T05:55:04.781Z,8.58
2023-10-30T05:57:54.376Z,8.55
2023-10-30T06:00:42.218Z,8.53
2023-10-30T06:03:30.102Z,8.49
2023-10-30T06:06:19.196Z,8.47
2023-10-30T06:09:07.481Z,8.46
2023-10-30T06:11:56.223Z,8.46
2023-10-30T06:14:43.968Z,8.43
2023-10-30T06:17:32.658Z,8.42
2023-10-30T06:20:21.565Z,8.42
2023-10-30T06:23:10.953Z,8.45
2023-10-30T06:25:58.700Z,8.43
2023-10-30T06:28:46.798Z,8.43
2023-10-30T06:31:34.940Z,8.44
2023-10-30T06:34:22.920Z,8.44
2023-10-30T06:37:11.184Z,8.46
2023-10-30T06:40:00.502Z,8.45
2023-10-30T06:42:48.217Z,8.49
2023-10-30T06:45:35.994Z,8.56
2023-10-30T06:48:23.485Z,8.83
2023-10-30T06:51:10.880Z,8.96
2023-10-30T06:53:58.707Z,9.05
2023-10-30T06:56:47.929Z,9.27
2023-10-30T06:59:35.815Z,9.41
2023-10-30T07:02:23.306Z,9.46
2023-10-30T07:05:11.191Z,9.51
2023-10-30T07:07:59.013Z,9.49
2023-10-30T07:10:46.457Z,9.52
2023-10-30T07:13:36.544Z,9.52
2023-10-30T07:16:24.570Z,9.54
2023-10-30T07:19:12.455Z,9.52
2023-10-30T07:22:00.270Z,9.62
2023-10-30T07:24:48.401Z,9.71
2023-10-30T07:27:37.862Z,9.81
2023-10-30T07:30:28.209Z,9.97
2023-10-30T07:33:15.951Z,10.03
2023-10-30T07:36:03.631Z,10.03
2023-10-30T07:38:51.201Z,10.12
2023-10-30T07:41:43.565Z,10.22
2023-10-30T07:44:33.282Z,10.18
2023-10-30T07:47:33.023Z,10.15
2023-10-30T07:50:25.550Z,10.14
2023-10-30T07:53:15.824Z,10.22
2023-10-30T07:56:03.397Z,10.31
2023-10-30T07:58:51.652Z,10.38
2023-10-30T08:01:40.371Z,10.41
2023-10-30T08:04:30.457Z,10.42
2023-10-30T08:07:18.881Z,10.40
2023-10-30T08:10:08.041Z,10.47
2023-10-30T08:12:57.567Z,10.57
2023-10-30T08:15:45.667Z,10.71
2023-10-30T08:18:33.578Z,10.80
2023-10-30T08:21:22.796Z,10.85
2023-10-30T08:24:11.852Z,10.88
2023-10-30T08:27:03.670Z,10.88
2023-10-30T08:29:51.138Z,11.02
2023-10-30T08:32:40.677Z,11.16
2023-10-30T08:35:28.697Z,11.27
2023-10-30T08:38:18.256Z,11.38
2023-10-30T08:41:05.966Z,11.44
2023-10-30T08:43:54.355Z,11.55
2023-10-30T08:46:42.227Z,11.61
2023-10-30T08:49:30.372Z,11.71
2023-10-30T08:52:17.935Z,11.80
2023-10-30T08:55:07.964Z,11.85
2023-10-30T08:57:55.779Z,11.92
2023-10-30T09:00:43.703Z,12.01
2023-10-30T09:03:32.640Z,12.03
2023-10-30T09:06:20.523Z,12.08
2023-10-30T09:09:08.961Z,12.18
2023-10-30T09:11:58.018Z,12.31
2023-10-30T09:14:45.766Z,12.38
2023-10-30T09:17:33.256Z,12.47
2023-10-30T09:20:21.569Z,12.55
2023-10-30T09:23:09.521Z,12.63
2023-10-30T09:25:57.288Z,12.62
2023-10-30T09:28:46.207Z,12.72
2023-10-30T09:31:34.401Z,12.85
2023-10-30T09:34:23.593Z,12.96
2023-10-30T09:37:12.902Z,13.10
2023-10-30T09:40:01.654Z,13.19
2023-10-30T09:42:53.489Z,13.32
2023-10-30T09:45:45.731Z,13.35
2023-10-30T09:48:35.886Z,13.41
2023-10-30T09:51:24.918Z,13.48
2023-10-30T09:54:13.659Z,13.54
2023-10-30T09:57:04.347Z,13.65
2023-10-30T09:59:56.062Z,13.71
2023-10-30T10:02:45.393Z,13.83
2023-10-30T10:05:33.954Z,13.91
2023-10-30T10:08:22.835Z,13.97
2023-10-30T10:11:10.782Z,14.03
2023-10-30T10:14:06.037Z,14.06
2023-10-30T10:16:54.800Z,14.12
2023-10-30T10:19:49.217Z,14.25
2023-10-30T10:22:37.404Z,14.34
2023-10-30T10:25:27.066Z,14.41
2023-10-30T10:28:14.876Z,14.57
2023-10-30T10:31:05.596Z,14.68
2023-10-30T10:33:55.782Z,14.73
2023-10-30T10:36:47.252Z,14.77
2023-10-30T10:39:52.535Z,14.84
2023-10-30T10:42:40.471Z,14.94
2023-10-30T10:45:28.893Z,15.02
2023-10-30T10:48:18.003Z,15.12
2023-10-30T10:51:07.313Z,15.21
2023-10-30T10:53:57.879Z,15.24
2023-10-30T10:56:54.970Z,15.26
2023-10-30T10:59:47.279Z,15.27
2023-10-30T11:02:49.240Z,15.33
2023-10-30T11:05:38.256Z,15.42
2023-10-30T11:08:50.548Z,15.51
2023-10-30T11:11:57.396Z,15.64
2023-10-30T11:14:54.522Z,15.78
2023-10-30T11:17:42.746Z,15.83
2023-10-30T11:20:32.577Z,15.86
2023-10-30T11:23:56.210Z,15.90
2023-10-30T11:26:45.887Z,15.97
2023-10-30T11:29:56.009Z,16.07
2023-10-30T11:32:58.521Z,16.09
2023-10-30T11:35:47.744Z,16.12
2023-10-30T11:38:49.689Z,16.12
2023-10-30T11:41:39.579Z,16.23
2023-10-30T11:44:33.917Z,16.40
2023-10-30T11:47:23.660Z,16.60
2023-10-30T11:50:12.144Z,16.79
2023-10-30T11:53:10.507Z,16.85
2023-10-30T11:55:59.814Z,16.94
2023-10-30T11:58:47.753Z,17.06
2023-10-30T12:01:39.662Z,17.16
2023-10-30T12:04:28.803Z,17.14
2023-10-30T12:07:16.628Z,17.15
2023-10-30T12:10:06.004Z,17.11
2023-10-30T12:12:56.158Z,17.18
2023-10-30T12:15:46.478Z,17.21
2023-10-30T12:18:37.940Z,17.16
2023-10-30T12:21:26.239Z,17.19
2023-10-30T12:24:16.561Z,17.23
2023-10-30T12:27:04.498Z,17.24
2023-10-30T12:29:59.970Z,17.26
2023-10-30T12:32:55.537Z,17.28
2023-10-30T12:35:57.469Z,17.34
2023-10-30T12:38:50.599Z,17.40
2023-10-30T12:41:38.521Z,17.47
2023-10-30T12:44:27.585Z,17.47
2023-10-30T12:47:15.709Z,17.44
2023-10-30T12:50:04.506Z,17.46
2023-10-30T12:52:53.698Z,17.40
2023-10-30T12:55:41.436Z,17.41
2023-10-30T12:58:29.127Z,17.42
2023-10-30T13:01:16.894Z,17.38
2023-10-30T13:04:05.263Z,17.33
2023-10-30T13:06:53.203Z,17.31
2023-10-30T13:09:42.436Z,17.31
2023-10-30T13:12:31.758Z,17.26
2023-10-30T13:15:20.883Z,17.16
2023-10-30T13:18:10.042Z,17.07
2023-10-30T13:20:58.085Z,16.96
2023-10-30T13:23:48.614Z,16.89
2023-10-30T13:26:39.713Z,16.78
2023-10-30T13:29:28.908Z,16.61
2023-10-30T13:32:16.988Z,16.53
2023-10-30T13:35:05.240Z,16.50
2023-10-30T13:37:53.416Z,16.50
2023-10-30T13:40:41.283Z,16.52
2023-10-30T13:43:32.342Z,16.59
2023-10-30T13:46:20.120Z,16.61
2023-10-30T13:49:08.202Z,16.66
2023-10-30T13:51:59.009Z,16.77
2023-10-30T13:54:48.183Z,16.76
2023-10-30T13:57:36.154Z,16.80
2023-10-30T14:00:25.644Z,16.86
2023-10-30T14:03:14.423Z,16.87
2023-10-30T14:06:02.539Z,16.88
2023-10-30T14:08:51.177Z,16.90
2023-10-30T14:11:39.310Z,16.85
2023-10-30T14:14:27.297Z,16.77
2023-10-30T14:17:16.361Z,16.71
2023-10-30T14:20:04.653Z,16.68
2023-10-30T14:22:52.355Z,16.60
2023-10-30T14:25:40.035Z,16.59
2023-10-30T14:28:27.444Z,16.50
2023-10-30T14:31:15.367Z,16.50
2023-10-30T14:34:04.507Z,16.46
2023-10-30T14:36:52.316Z,16.39
2023-10-30T14:39:40.057Z,16.35
2023-10-30T14:42:27.513Z,16.24
2023-10-30T14:45:15.687Z,16.23
2023-10-30T14:48:04.033Z,16.26
2023-10-30T14:50:57.669Z,16.25
2023-10-30T14:53:45.261Z,16.21
2023-10-30T14:56:34.938Z,16.14
2023-10-30T14:59:22.949Z,16.05
2023-10-30T15:02:10.925Z,15.97
2023-10-30T15:05:01.299Z,15.94
2023-10-30T15:07:52.160Z,15.86
2023-10-30T15:10:39.952Z,15.82
2023-10-30T15:13:27.926Z,15.75
2023-10-30T15:16:15.825Z,15.70
2023-10-30T15:19:04.102Z,15.67
2023-10-30T15:21:52.119Z,15.64
2023-10-30T15:24:43.320Z,15.60
2023-10-30T15:27:34.838Z,15.52
2023-10-30T15:30:22.436Z,15.43
2023-10-30T15:33:10.149Z,15.34
2023-10-30T15:35:58.164Z,15.26
2023-10-30T15:38:45.730Z,15.19
2023-10-30T15:41:37.590Z,15.11
2023-10-30T15:44:25.366Z,15.02
2023-10-30T15:47:24.312Z,14.97
2023-10-30T15:50:13.006Z,14.93
2023-10-30T16:01:33.631Z,14.69
2023-10-30T16:04:23.971Z,14.63
2023-10-30T16:07:12.766Z,14.57
2023-10-30T16:12:51.601Z,14.43
2023-10-30T16:15:40.594Z,14.33
2023-10-30T16:18:28.367Z,14.28
2023-10-30T16:21:17.179Z,14.22
2023-10-30T16:24:05.941Z,14.20
2023-10-30T16:26:54.109Z,14.18
2023-10-30T16:29:41.906Z,14.14
2023-10-30T16:32:31.174Z,14.09
2023-10-30T16:35:18.966Z,14.06
2023-10-30T16:38:06.755Z,14.02
2023-10-30T16:40:54.641Z,13.99
2023-10-30T16:43:42.475Z,13.96
2023-10-30T16:46:30.406Z,13.95
2023-10-30T16:49:19.947Z,13.92
2023-10-30T16:52:07.731Z,13.90
2023-10-30T16:54:56.707Z,13.86
2023-10-30T16:57:44.662Z,13.83
2023-10-30T17:00:32.331Z,13.80
2023-10-30T17:03:20.120Z,13.76
2023-10-30T17:06:10.544Z,13.73
2023-10-30T17:08:58.598Z,13.70
2023-10-30T17:11:46.590Z,13.67
2023-10-30T17:14:34.156Z,13.63
2023-10-30T17:17:22.355Z,13.60
2023-10-30T17:20:12.591Z,13.58
2023-10-30T17:23:01.691Z,13.57
2023-10-30T17:25:49.731Z,13.53
2023-10-30T17:28:37.519Z,13.49
2023-10-30T17:31:25.311Z,13.46
2023-10-30T17:34:14.108Z,13.42
2023-10-30T17:37:01.924Z,13.39
2023-10-30T17:39:52.795Z,13.36
2023-10-30T17:42:41.737Z,13.34
2023-10-30T17:45:29.412Z,13.30
2023-10-30T17:48:17.184Z,13.25
2023-10-30T17:51:05.787Z,13.24
2023-10-30T17:53:53.643Z,13.20
2023-10-30T17:56:42.783Z,13.14
2023-10-30T17:59:30.838Z,13.11
2023-10-30T18:02:19.520Z,13.07
2023-10-30T18:05:08.264Z,13.00
2023-10-30T18:07:56.377Z,12.98
2023-10-30T18:10:46.779Z,12.97
2023-10-30T18:13:36.053Z,12.90
2023-10-30T18:16:23.868Z,12.87
2023-10-30T18:19:13.579Z,12.86
2023-10-30T18:22:01.460Z,12.82
2023-10-30T18:24:49.297Z,12.79
2023-10-30T18:27:37.406Z,12.75
2023-10-30T18:30:26.668Z,12.77
2023-10-30T18:33:14.647Z,12.74
2023-10-30T18:36:02.477Z,12.74
2023-10-30T18:38:50.341Z,12.71
2023-10-30T18:41:38.138Z,12.71
2023-10-30T18:44:26.149Z,12.71
2023-10-30T18:47:15.746Z,12.69
2023-10-30T18:50:04.505Z,12.68
2023-10-30T18:52:52.563Z,12.67
2023-10-30T18:55:40.430Z,12.66
2023-10-30T18:58:29.894Z,12.65
2023-10-30T19:01:20.241Z,12.64
2023-10-30T19:04:09.713Z,12.60
2023-10-30T19:06:57.517Z,12.61
2023-10-30T19:09:45.060Z,12.60
2023-10-30T19:12:33.813Z,12.57
2023-10-30T19:15:21.623Z,12.56
2023-10-30T19:18:09.957Z,12.55
2023-10-30T19:20:59.204Z,12.54
2023-10-30T19:23:46.714Z,12.52
2023-10-30T19:26:34.403Z,12.49
2023-10-30T19:29:22.123Z,12.49
2023-10-30T19:32:10.161Z,12.49
2023-10-30T19:34:58.090Z,12.46
2023-10-30T19:37:47.351Z,12.45
2023-10-30T19:40:36.699Z,12.44
2023-10-30T19:43:24.230Z,12.43
2023-10-30T19:46:11.826Z,12.41
2023-10-30T19:48:59.480Z,12.40
2023-10-30T19:51:55.870Z,12.39
2023-10-30T19:54:48.214Z,12.37
2023-10-30T19:57:37.037Z,12.36
2023-10-30T20:00:24.926Z,12.36
2023-10-30T20:03:12.885Z,12.36
2023-10-30T20:06:00.873Z,12.35
2023-10-30T20:08:48.331Z,12.32
2023-10-30T20:11:38.072Z,12.30
2023-10-30T20:14:29.481Z,12.29
2023-10-30T20:17:17.183Z,12.26
2023-10-30T20:20:05.643Z,12.22
2023-10-30T20:22:53.157Z,12.20
2023-10-30T20:25:40.690Z,12.18
2023-10-30T20:28:29.838Z,12.20
2023-10-30T20:31:17.815Z,12.22
2023-10-30T20:34:05.661Z,12.22
2023-10-30T20:36:53.152Z,12.22
2023-10-30T20:39:40.864Z,12.23
2023-10-30T20:42:28.495Z,12.26
2023-10-30T20:45:17.616Z,12.24
2023-10-30T20:48:06.626Z,12.23
2023-10-30T20:50:54.847Z,12.21
2023-10-30T20:53:42.673Z,12.21
2023-10-30T20:56:30.207Z,12.22
2023-10-30T20:59:17.847Z,12.22
2023-10-30T21:02:06.985Z,12.23
2023-10-30T21:04:56.795Z,12.23
2023-10-30T21:07:45.231Z,12.22
2023-10-30T21:10:32.790Z,12.21
2023-10-30T21:13:21.215Z,12.25
2023-10-30T21:16:09.564Z,12.26
2023-10-30T21:18:59.481Z,12.24
2023-10-30T21:21:47.948Z,12.21
2023-10-30T21:24:35.348Z,12.19
2023-10-30T21:27:22.880Z,12.17
2023-10-30T21:30:11.426Z,12.15
2023-10-30T21:32:59.190Z,12.16
2023-10-30T21:35:48.394Z,12.18
2023-10-30T21:38:37.016Z,12.20
2023-10-30T21:41:24.925Z,12.22
2023-10-30T21:44:12.549Z,12.21
2023-10-30T21:47:00.414Z,12.19
2023-10-30T21:49:48.809Z,12.22
2023-10-30T21:52:38.717Z,12.23
2023-10-30T21:55:26.699Z,12.19
2023-10-30T21:58:20.293Z,12.19
2023-10-30T22:01:08.216Z,12.19
2023-10-30T22:03:56.144Z,12.18
2023-10-30T22:06:44.407Z,12.15
2023-10-30T22:09:33.520Z,12.14
2023-10-30T22:12:21.490Z,12.14
2023-10-30T22:15:11.393Z,12.13
2023-10-30T22:17:59.256Z,12.12
2023-10-30T22:20:46.913Z,12.10
2023-10-30T22:23:34.950Z,12.10
2023-10-30T22:26:24.382Z,12.08
2023-10-30T22:29:11.956Z,12.07
2023-10-30T22:31:59.585Z,12.04
2023-10-30T22:34:47.438Z,12.06
2023-10-30T22:37:35.488Z,12.05
2023-10-30T22:40:23.488Z,12.04
2023-10-30T22:43:12.533Z,12.04
2023-10-30T22:46:00.337Z,12.02
2023-10-30T22:48:48.406Z,12.02
2023-10-30T22:51:36.102Z,12.02
2023-10-30T22:54:23.762Z,12.00
2023-10-30T22:57:11.801Z,11.98
2023-10-30T23:00:01.102Z,11.97
2023-10-30T23:02:49.573Z,11.94
2023-10-30T23:05:37.686Z,11.95
2023-10-30T23:08:25.454Z,11.95
2023-10-30T23:11:13.279Z,11.96
2023-10-30T23:14:01.389Z,11.93
2023-10-30T23:16:50.543Z,11.93
2023-10-30T23:19:38.239Z,11.92
2023-10-30T23:22:25.968Z,11.94
2023-10-30T23:25:16.430Z,11.94
2023-10-30T23:28:04.244Z,11.95
2023-10-30T23:30:52.043Z,11.96
2023-10-30T23:33:41.097Z,11.97
2023-10-30T23:36:28.812Z,11.97
2023-10-30T23:39:16.391Z,11.94
2023-10-30T23:42:04.274Z,11.95
2023-10-30T23:44:51.992Z,11.96
2023-10-30T23:47:39.905Z,11.96
2023-10-30T23:50:29.396Z,11.96
2023-10-30T23:53:17.327Z,11.98
2023-10-30T23:56:06.021Z,11.98
2023-10-30T23:58:53.622Z,12.02
